Hartland, North Dakota
Current Conditions -  °F | °C
As of 11:23 AM on Thursday 18 Dec 2014 (Local Time) from KMIB Reporting Station
Overcast Overcast  
Wind Chill:   Ceiling: 1900
Heat Index: 19°   Visibility: 10mi
Dew Point: 19°   Wind: 8mph
Humidity: 100%   Direction: 180°S
Pressure: 30.05"   Gusts: NA
Location:  48.4159°N, 101.712°W
Report Text: KMIB 181723Z AUTO 18007KT 10SM OVC019 M07/M07 A3005 RMK AO2
Loading
Personal Weather Stations






























Interactive Weather Map New forecast layout! Learn more

10-Day Weather Forecast

Advertisements
Track Severe Weather on mobile